Terminal Aerodrome Forecast
Issued by NWS

Home | Current Version | Previous Version | Text Only | Print | Product List | Glossary On
Versions: 1 2 3 4 5 6 7 8 9 10 11 12
458
FTUS42 KMLB 221142
TAFFPR
TAF
KFPR 221142Z 2212/2312 11008KT P6SM FEW025 SCT035
     FM221500 11013KT P6SM SCT030
     FM230000 09008KT P6SM SCT030=

USA.gov is the U.S. government's official web portal to all federal, state and local government web resources and services.